Thursday, January 17, 2019, 6:01 AM EST
Back to Local

KBVY, Beverly Municipal Airport

Location: Danvers, MA, United States Lat: 42.583
Local Time: 6:01 AM EST (11:01 GMT) Lon: -70.917
Time Zone: US/Eastern Elev: 108 ft

Show me the last for .
Show Decoded

2019-01-17 04:53 METAR KBVY 170953Z AUTO 33010KT 10SM CLR M09/M18 A3030 RMK AO2 SLP257 T10891183
                 =
2019-01-17 03:53 METAR KBVY 170853Z AUTO 33008KT 10SM CLR M07/M18 A3028 RMK AO2 SLP250 T10721178
                 51037 =
2019-01-17 02:53 METAR KBVY 170753Z AUTO 33012KT 10SM CLR M06/M16 A3025 RMK AO2 SLP240 T10611161
                 =
2019-01-17 01:53 METAR KBVY 170653Z AUTO 34013KT 10SM CLR M04/M14 A3021 RMK AO2 SLP227 T10441144
                 =
2019-01-17 00:53 METAR KBVY 170553Z AUTO 33012G17KT 10SM CLR M03/M13 A3017 RMK AO2 SLP213
                 T10281133 10022 21028 53038 =
2019-01-16 23:53 METAR KBVY 170453Z AUTO 33010KT 10SM CLR M02/M11 A3013 RMK AO2 SLP199 T10171111
                 400331061 =
2019-01-16 22:53 METAR KBVY 170353Z AUTO 33011KT 10SM FEW043 BKN060 01/M09 A3009 RMK AO2 SLP187
                 T00061094 =
2019-01-16 21:53 METAR KBVY 170253Z AUTO 28008KT 10SM CLR 01/M10 A3005 RMK AO2 SLP174 T00111100
                 53028 =
2019-01-16 20:53 METAR KBVY 170153Z AUTO 27011G18KT 10SM SCT060 02/M08 A3001 RMK AO2 SLP160
                 T00221083 =
2019-01-16 19:53 METAR KBVY 170053Z 25009G16KT 10SM OVC060 02/M07 A2998 RMK AO2 SLP151 T00171072
                 =
2019-01-16 18:53 METAR KBVY 162353Z 23005KT 10SM CLR 01/M07 A2997 RMK AO2 SLP147 T00061072 10033
                 20006 53022 =
2019-01-16 17:53 METAR KBVY 162253Z 23008KT 10SM FEW070 02/M07 A2994 RMK AO2 SLP137 T00171072 =
2019-01-16 16:53 METAR KBVY 162153Z 25008KT 10SM FEW045 02/M07 A2992 RMK AO2 SLP130 T00171067 =
2019-01-16 15:53 METAR KBVY 162053Z 26012G16KT 10SM CLR 03/M07 A2991 RMK AO2 SLP125 T00281067
                 51005 =
2019-01-16 14:53 METAR KBVY 161953Z 24010KT 10SM BKN040 03/M07 A2990 RMK AO2 SLP123 T00331067 =
2019-01-16 13:53 METAR KBVY 161853Z 26012KT 10SM OVC039 03/M07 A2990 RMK AO2 SLP123 T00281067 =
2019-01-16 12:53 METAR KBVY 161753Z 25010G18KT 10SM OVC037 03/M07 A2989 RMK AO2 SLP120 T00281067
                 10028 21033 58023 =
2019-01-16 11:53 METAR KBVY 161653Z 23010KT 10SM OVC037 02/M07 A2991 RMK AO2 SLP127 T00171067 =
2019-01-16 10:53 METAR KBVY 161553Z 26011KT 10SM BKN035 01/M07 A2995 RMK AO2 SLP139 T00111067 =
2019-01-16 09:53 METAR KBVY 161453Z 23014G18KT 10SM CLR 01/M06 A2996 RMK AO2 SLP143 T00061061
                 58009 =
2019-01-16 08:53 METAR KBVY 161353Z 22008KT 10SM CLR M01/M06 A2998 RMK AO2 SLP148 T10061061 =
2019-01-16 07:53 METAR KBVY 161253Z 20007KT 10SM CLR M03/M07 A2998 RMK AO2 SLP148 T10281072 =
2019-01-16 06:53 METAR KBVY 161153Z 21005KT 10SM OVC034 M03/M08 A2999 RMK AO2 SLP152 T10331078
                 11033 21061 55005 =

Support USWX by starting your Amazon purchase here.